Time;durP1;ratioP1;P1;durP2;ratioP2;P2;SDS_P1;SDS_P2;PMS_P1;PMS_P2;Temp;Humidity;BMP_temperature;BMP_pressure;BME280_temperature;BME280_humidity;BME280_pressure;Samples;Min_cycle;Max_cycle;Signal;HPM_P1;HPM_P2
2023/06/15 00:01:44;;;;;;;4.27;2.90;;;;;;;17.78;100.00;99142.16;5127781;27;20223;-77
2023/06/15 00:04:12;;;;;;;4.07;3.23;;;;;;;17.81;100.00;99141.84;5130107;27;20195;-76
2023/06/15 00:06:41;;;;;;;3.73;3.43;;;;;;;17.70;100.00;99150.06;5126808;27;20223;-77
2023/06/15 00:09:09;;;;;;;4.03;3.00;;;;;;;17.81;100.00;99146.38;5131272;27;20202;-77
2023/06/15 00:11:37;;;;;;;3.37;3.07;;;;;;;17.57;100.00;99146.81;5124937;27;20209;-76
2023/06/15 00:14:08;;;;;;;4.17;3.00;;;;;;;17.65;100.00;99139.72;5127785;27;20663;-76
2023/06/15 00:16:41;;;;;;;3.40;3.00;;;;;;;17.53;100.00;99154.25;5128758;27;20201;-77
2023/06/15 00:19:09;;;;;;;3.63;3.03;;;;;;;17.36;100.00;99153.13;5126472;27;20213;-77
2023/06/15 00:21:41;;;;;;;6.10;3.43;;;;;;;17.27;100.00;99155.81;5131350;27;20198;-76
2023/06/15 00:24:10;;;;;;;6.57;3.33;;;;;;;17.23;100.00;99163.28;5129828;27;20308;-76
2023/06/15 00:26:38;;;;;;;4.00;3.07;;;;;;;17.02;100.00;99160.75;5129602;27;20200;-77
2023/06/15 00:29:09;;;;;;;3.30;2.83;;;;;;;16.96;100.00;99150.59;5049186;28;20193;-76
2023/06/15 00:31:39;;;;;;;5.40;3.40;;;;;;;16.77;100.00;99164.78;5042233;28;20208;-76
2023/06/15 00:34:08;;;;;;;4.37;2.97;;;;;;;16.64;100.00;99163.31;5049345;28;20216;-77
2023/06/15 00:36:36;;;;;;;5.10;3.00;;;;;;;16.68;100.00;99167.38;5043836;28;20235;-76
2023/06/15 00:39:12;;;;;;;3.70;3.30;;;;;;;16.57;100.00;99163.84;5046553;28;20312;-77
2023/06/15 00:41:41;;;;;;;5.00;3.03;;;;;;;16.49;100.00;99163.66;5013428;28;20201;-76
2023/06/15 00:44:12;;;;;;;4.10;3.03;;;;;;;16.62;100.00;99162.59;5044674;28;20221;-76
2023/06/15 00:46:41;;;;;;;4.73;3.37;;;;;;;16.53;100.00;99165.09;5059150;27;20209;-76
2023/06/15 00:49:10;;;;;;;3.57;3.27;;;;;;;16.52;100.00;99166.09;5126517;27;20225;-76
2023/06/15 00:51:41;;;;;;;3.50;3.10;;;;;;;16.66;100.00;99172.03;5134809;27;20282;-77
2023/06/15 00:54:12;;;;;;;5.43;3.30;;;;;;;16.45;100.00;99170.28;5127075;27;20234;-76
2023/06/15 00:56:40;;;;;;;3.97;3.30;;;;;;;16.29;100.00;99165.41;5127762;27;20206;-76
2023/06/15 00:59:12;;;;;;;3.47;3.17;;;;;;;16.30;100.00;99176.97;5128632;27;20206;-77
2023/06/15 01:01:41;;;;;;;4.17;3.60;;;;;;;16.38;100.00;99174.47;5128999;27;20190;-76
2023/06/15 01:04:10;;;;;;;3.67;3.30;;;;;;;16.64;100.00;99174.84;5125787;27;20714;-76
2023/06/15 01:06:42;;;;;;;3.50;3.20;;;;;;;16.50;100.00;99180.56;5129994;27;20197;-77
2023/06/15 01:09:11;;;;;;;3.07;2.80;;;;;;;16.65;100.00;99179.22;5129931;27;20208;-76
2023/06/15 01:11:41;;;;;;;4.37;3.40;;;;;;;16.50;100.00;99178.75;5121751;27;20213;-76
2023/06/15 01:14:09;;;;;;;4.47;3.17;;;;;;;16.13;100.00;99180.28;5127265;27;20194;-76
2023/06/15 01:16:52;;;;;;;4.27;3.30;;;;;;;15.97;100.00;99184.25;5128878;27;20240;-76
2023/06/15 01:19:34;;;;;;;4.93;3.37;;;;;;;15.88;100.00;99182.38;5123664;27;20222;-76
2023/06/15 01:22:14;;;;;;;5.00;3.23;;;;;;;15.62;100.00;99184.56;5123126;27;20210;-76
2023/06/15 01:24:49;;;;;;;6.50;3.33;;;;;;;15.86;100.00;99175.47;5132837;27;20218;-76
2023/06/15 01:27:21;;;;;;;3.60;3.30;;;;;;;15.93;100.00;99177.50;5129228;27;20194;-76
2023/06/15 01:29:52;;;;;;;5.97;3.53;;;;;;;15.70;100.00;99173.25;5127151;27;20202;-76
2023/06/15 01:32:21;;;;;;;5.57;3.53;;;;;;;15.70;100.00;99171.44;5126415;27;20218;-76
2023/06/15 01:34:50;;;;;;;3.73;3.43;;;;;;;15.63;100.00;99169.41;5123305;27;20290;-76
2023/06/15 01:37:19;;;;;;;3.90;3.50;;;;;;;15.57;100.00;99177.91;5124489;27;20627;-76
2023/06/15 01:39:47;;;;;;;3.87;3.50;;;;;;;15.64;100.00;99179.97;5132853;27;20194;-76
2023/06/15 01:42:16;;;;;;;3.87;3.50;;;;;;;15.53;100.00;99182.66;5128273;27;20209;-76
2023/06/15 01:44:49;;;;;;;4.10;3.70;;;;;;;15.50;100.00;99177.56;5125542;27;20225;-76
2023/06/15 01:47:18;;;;;;;5.67;3.83;;;;;;;15.52;100.00;99180.09;5128233;27;20204;-76
2023/06/15 01:49:48;;;;;;;5.10;4.00;;;;;;;15.52;100.00;99178.28;5126117;27;20198;-76
2023/06/15 01:52:16;;;;;;;3.80;3.50;;;;;;;15.55;100.00;99174.53;5123620;27;20309;-76
2023/06/15 01:54:45;;;;;;;4.37;3.53;;;;;;;15.58;100.00;99176.94;5125459;27;20201;-76
2023/06/15 01:57:13;;;;;;;5.97;3.90;;;;;;;15.50;100.00;99174.06;5125598;27;20197;-76
2023/06/15 01:59:41;;;;;;;6.00;4.03;;;;;;;15.29;100.00;99174.03;5124753;27;20281;-76
2023/06/15 02:02:11;;;;;;;7.67;3.70;;;;;;;15.20;100.00;99177.47;5127033;27;20195;-75
2023/06/15 02:04:40;;;;;;;4.60;4.00;;;;;;;15.24;100.00;99178.88;5124951;27;20307;-76
2023/06/15 02:07:09;;;;;;;3.80;3.50;;;;;;;15.31;100.00;99183.59;5127992;27;20194;-76
2023/06/15 02:09:37;;;;;;;5.33;3.77;;;;;;;15.28;100.00;99183.88;5124323;27;20565;-76
2023/06/15 02:12:07;;;;;;;5.97;3.43;;;;;;;15.33;100.00;99183.47;5129368;27;20186;-76
2023/06/15 02:14:35;;;;;;;5.13;3.60;;;;;;;15.16;100.00;99174.22;5128866;28;20243;-76
2023/06/15 02:17:05;;;;;;;6.13;3.63;;;;;;;15.15;100.00;99181.38;5129625;28;20217;-76
2023/06/15 02:19:35;;;;;;;4.00;3.43;;;;;;;15.13;100.00;99185.13;5124869;28;20191;-76
2023/06/15 02:22:06;;;;;;;5.70;3.63;;;;;;;15.32;100.00;99169.28;5133493;28;20186;-76
2023/06/15 02:24:34;;;;;;;4.70;3.50;;;;;;;15.43;100.00;99171.88;5122122;28;20298;-76
2023/06/15 02:27:04;;;;;;;4.97;3.50;;;;;;;15.43;100.00;99174.56;5122340;28;20198;-77
2023/06/15 02:29:32;;;;;;;3.60;3.30;;;;;;;15.51;100.00;99176.59;5130693;28;20315;-76
2023/06/15 02:32:00;;;;;;;4.27;3.60;;;;;;;15.58;100.00;99175.09;5133319;28;20201;-77
2023/06/15 02:34:30;;;;;;;3.90;3.50;;;;;;;15.44;100.00;99178.94;5122561;28;20204;-77
2023/06/15 02:37:00;;;;;;;4.63;4.00;;;;;;;15.51;100.00;99178.41;5125480;27;20193;-76
2023/06/15 02:39:30;;;;;;;7.30;3.60;;;;;;;15.26;100.00;99179.63;5127234;28;20196;-76
2023/06/15 02:41:58;;;;;;;4.10;3.70;;;;;;;15.04;100.00;99188.53;5127778;28;20262;-76
2023/06/15 02:44:26;;;;;;;6.40;4.00;;;;;;;15.14;100.00;99181.47;5126606;28;20270;-77
2023/06/15 02:46:56;;;;;;;4.47;3.77;;;;;;;15.16;100.00;99188.41;5128825;28;20198;-76
2023/06/15 02:49:25;;;;;;;4.67;3.80;;;;;;;15.14;100.00;99186.81;5121614;28;20201;-76
2023/06/15 02:51:54;;;;;;;6.33;3.80;;;;;;;15.10;100.00;99193.38;5130186;28;20198;-77
2023/06/15 02:54:24;;;;;;;6.27;3.80;;;;;;;15.16;100.00;99191.06;5122859;28;20220;-76
2023/06/15 02:56:53;;;;;;;5.63;3.80;;;;;;;15.00;100.00;99193.28;5125330;28;20664;-77
2023/06/15 02:59:25;;;;;;;5.33;3.77;;;;;;;14.85;100.00;99192.69;5129136;28;20198;-77
2023/06/15 03:01:54;;;;;;;5.17;4.10;;;;;;;14.81;100.00;99195.75;5124826;28;20239;-76
2023/06/15 03:04:23;;;;;;;9.30;3.87;;;;;;;14.75;100.00;99186.41;5130425;27;20235;-77
2023/06/15 03:06:52;;;;;;;4.83;3.53;;;;;;;14.79;100.00;99187.88;5130987;27;20663;-77
2023/06/15 03:09:23;;;;;;;8.07;4.23;;;;;;;14.71;100.00;99189.47;5129636;27;20194;-77
2023/06/15 03:11:52;;;;;;;4.73;4.00;;;;;;;14.67;100.00;99196.88;5120991;27;20217;-76
2023/06/15 03:14:20;;;;;;;6.97;3.90;;;;;;;14.65;100.00;99195.28;5123611;27;20197;-76
2023/06/15 03:16:51;;;;;;;5.73;4.20;;;;;;;14.49;100.00;99196.53;5130322;27;20183;-76
2023/06/15 03:19:19;;;;;;;6.53;3.67;;;;;;;14.75;100.00;99196.25;5127576;27;20202;-76
2023/06/15 03:21:55;;;;;;;4.97;4.10;;;;;;;14.84;100.00;99199.00;5073303;28;20223;-76
2023/06/15 03:24:25;;;;;;;4.50;4.00;;;;;;;15.02;100.00;99206.50;5062305;28;20216;-76
2023/06/15 03:26:57;;;;;;;5.27;3.83;;;;;;;14.87;100.00;99198.78;5063753;28;20226;-76
2023/06/15 03:29:26;;;;;;;4.80;4.33;;;;;;;14.93;100.00;99194.75;5064327;28;20208;-77
2023/06/15 03:31:55;;;;;;;6.30;3.77;;;;;;;15.04;100.00;99202.72;5063117;28;20192;-76
2023/06/15 03:34:24;;;;;;;5.17;3.70;;;;;;;15.20;100.00;99201.47;5068517;28;20196;-76
2023/06/15 03:36:53;;;;;;;5.20;3.83;;;;;;;15.20;100.00;99196.16;5055651;28;20224;-76
2023/06/15 03:39:22;;;;;;;5.50;3.90;;;;;;;15.11;100.00;99205.75;5075396;27;20198;-76
2023/06/15 03:41:52;;;;;;;5.40;3.83;;;;;;;15.08;100.00;99206.00;5048588;28;20263;-76
2023/06/15 03:44:21;;;;;;;5.23;3.70;;;;;;;15.16;100.00;99208.91;5047466;28;20216;-77
2023/06/15 03:46:49;;;;;;;7.43;3.80;;;;;;;15.14;100.00;99203.66;5042052;28;20213;-76
2023/06/15 03:49:17;;;;;;;6.47;3.63;;;;;;;15.31;100.00;99202.28;5052580;28;20197;-76
2023/06/15 03:51:46;;;;;;;4.67;3.97;;;;;;;15.30;100.00;99211.25;4967016;28;20223;-76
2023/06/15 03:54:14;;;;;;;4.77;3.57;;;;;;;15.57;100.00;99213.47;4930000;29;20235;-76
2023/06/15 03:56:44;;;;;;;5.00;3.87;;;;;;;15.61;100.00;99209.59;4931409;29;20237;-76
2023/06/15 03:59:14;;;;;;;5.27;3.93;;;;;;;15.50;100.00;99209.59;4936813;28;20207;-76
2023/06/15 04:01:42;;;;;;;4.53;4.13;;;;;;;15.54;100.00;99211.06;4985082;28;20281;-76
2023/06/15 04:04:14;;;;;;;5.27;3.87;;;;;;;15.54;100.00;99216.41;4983709;28;20203;-76
2023/06/15 04:06:46;;;;;;;5.57;4.00;;;;;;;15.54;100.00;99210.19;4972819;28;20192;-76
2023/06/15 04:09:15;;;;;;;8.03;4.37;;;;;;;15.40;100.00;99220.19;4996738;28;20201;-76
2023/06/15 04:11:43;;;;;;;5.97;4.20;;;;;;;15.53;100.00;99220.03;5043367;28;20203;-76
2023/06/15 04:14:14;;;;;;;8.83;4.50;;;;;;;15.37;100.00;99222.28;5044910;28;20205;-76
2023/06/15 04:16:42;;;;;;;6.07;4.50;;;;;;;15.34;100.00;99219.84;5041175;28;20216;-77
2023/06/15 04:19:11;;;;;;;5.70;4.10;;;;;;;15.52;100.00;99221.00;5099720;27;20214;-77
2023/06/15 04:21:39;;;;;;;5.90;4.20;;;;;;;15.46;100.00;99214.38;5130503;27;20201;-76
2023/06/15 04:24:12;;;;;;;5.10;4.20;;;;;;;15.58;100.00;99216.97;5129061;27;20201;-76
2023/06/15 04:26:41;;;;;;;5.57;4.20;;;;;;;15.59;100.00;99219.53;5126186;27;20198;-76
2023/06/15 04:29:10;;;;;;;5.27;4.20;;;;;;;15.60;100.00;99231.03;5127804;27;20194;-76
2023/06/15 04:31:44;;;;;;;4.70;4.23;;;;;;;15.64;100.00;99222.69;5124228;27;20202;-77
2023/06/15 04:34:12;;;;;;;5.43;4.20;;;;;;;15.62;100.00;99221.09;5121746;27;20194;-77
2023/06/15 04:36:41;;;;;;;5.57;4.63;;;;;;;15.68;100.00;99220.59;5107737;28;20728;-76
2023/06/15 04:39:10;;;;;;;5.00;4.17;;;;;;;15.69;100.00;99215.13;5106903;28;20187;-76
2023/06/15 04:41:39;;;;;;;7.70;4.37;;;;;;;15.80;100.00;99216.06;5102214;28;20202;-76
2023/06/15 04:44:07;;;;;;;4.40;3.97;;;;;;;15.86;100.00;99216.38;5106495;28;20211;-76
2023/06/15 04:46:39;;;;;;;5.83;3.97;;;;;;;15.90;100.00;99219.63;5103780;28;20211;-77
2023/06/15 04:49:10;;;;;;;4.97;4.03;;;;;;;16.16;100.00;99220.94;5111414;28;20250;-76
2023/06/15 04:51:38;;;;;;;4.60;4.10;;;;;;;16.17;100.00;99225.28;5108672;28;20202;-76
2023/06/15 04:54:06;;;;;;;7.00;4.30;;;;;;;16.28;100.00;99227.03;5106972;28;20266;-76
2023/06/15 04:56:35;;;;;;;5.33;4.57;;;;;;;16.35;100.00;99228.22;5107157;28;20194;-76
2023/06/15 04:59:03;;;;;;;6.93;4.60;;;;;;;16.47;100.00;99235.16;5067138;28;20204;-76
2023/06/15 05:01:32;;;;;;;8.00;4.50;;;;;;;16.54;100.00;99235.47;5065195;28;20199;-76
2023/06/15 05:04:00;;;;;;;8.83;4.60;;;;;;;16.58;100.00;99220.84;5062804;28;20207;-76
2023/06/15 05:06:34;;;;;;;8.40;4.43;;;;;;;16.84;100.00;99237.31;5064756;28;20224;-77
2023/06/15 05:09:05;;;;;;;8.50;4.63;;;;;;;16.75;100.00;99233.63;5064449;28;20192;-77
2023/06/15 05:11:34;;;;;;;5.37;4.47;;;;;;;16.83;100.00;99230.28;5059245;28;20193;-77
2023/06/15 05:14:03;;;;;;;6.23;4.47;;;;;;;16.84;100.00;99222.09;5068709;28;20220;-77
2023/06/15 05:16:32;;;;;;;6.93;4.00;;;;;;;16.96;100.00;99230.00;5063776;28;20207;-77
2023/06/15 05:19:02;;;;;;;7.17;4.53;;;;;;;17.11;100.00;99231.34;5064722;28;20185;-77
2023/06/15 05:21:32;;;;;;;5.97;3.90;;;;;;;17.16;100.00;99237.94;5059347;28;20196;-77
2023/06/15 05:24:00;;;;;;;5.87;4.43;;;;;;;16.99;100.00;99230.59;5088563;28;20201;-77
2023/06/15 05:26:28;;;;;;;6.97;4.37;;;;;;;17.06;100.00;99228.22;5107700;28;20298;-77
2023/06/15 05:28:58;;;;;;;6.40;4.10;;;;;;;17.43;100.00;99234.59;5074638;28;20194;-77
2023/06/15 05:31:26;;;;;;;7.03;4.20;;;;;;;17.27;100.00;99236.97;5109800;28;20237;-77
2023/06/15 05:33:55;;;;;;;5.47;4.27;;;;;;;17.27;100.00;99234.28;5101000;28;20199;-77
2023/06/15 05:36:25;;;;;;;6.30;4.80;;;;;;;17.37;100.00;99236.97;5108565;28;20249;-76
2023/06/15 05:39:15;;;;;;;6.63;4.50;;;;;;;17.39;100.00;99230.53;5107638;28;20215;-77
2023/06/15 05:41:43;;;;;;;5.90;4.40;;;;;;;17.69;100.00;99240.28;5102457;28;20248;-77
2023/06/15 05:44:12;;;;;;;7.90;4.67;;;;;;;17.60;100.00;99240.25;5110277;28;20203;-77
2023/06/15 05:46:43;;;;;;;7.57;4.70;;;;;;;17.64;100.00;99236.31;5110462;28;20207;-77
2023/06/15 05:49:11;;;;;;;7.13;4.20;;;;;;;17.82;100.00;99244.50;5104576;28;20194;-77
2023/06/15 05:51:40;;;;;;;4.43;4.03;;;;;;;18.02;100.00;99243.50;5109489;28;20222;-77
2023/06/15 05:54:09;;;;;;;7.43;4.37;;;;;;;18.14;100.00;99242.34;5102135;28;20187;-77
2023/06/15 05:56:39;;;;;;;7.03;4.03;;;;;;;18.30;100.00;99249.78;5109388;28;20255;-77
2023/06/15 05:59:08;;;;;;;5.20;4.03;;;;;;;18.51;100.00;99250.44;5104708;28;20201;-77
2023/06/15 06:01:56;;;;;;;7.23;4.60;;;;;;;18.17;100.00;99244.75;5113264;28;20203;-77
2023/06/15 06:04:26;;;;;;;5.93;4.37;;;;;;;18.28;100.00;99252.63;5104229;28;20211;-77
2023/06/15 06:06:55;;;;;;;5.37;4.23;;;;;;;18.56;100.00;99253.53;5103537;28;20210;-77
2023/06/15 06:09:23;;;;;;;6.90;4.30;;;;;;;18.68;100.00;99250.69;5102836;28;20634;-77
2023/06/15 06:11:53;;;;;;;5.53;4.13;;;;;;;18.77;100.00;99253.34;5108650;28;20203;-77
2023/06/15 06:14:22;;;;;;;8.37;3.80;;;;;;;18.95;100.00;99263.31;5026626;28;20194;-77
2023/06/15 06:16:50;;;;;;;5.80;4.20;;;;;;;18.87;100.00;99262.19;5021830;28;20679;-77
2023/06/15 06:19:19;;;;;;;7.40;3.97;;;;;;;19.28;100.00;99256.47;5025862;28;20208;-77
2023/06/15 06:21:47;;;;;;;5.60;4.23;;;;;;;19.24;100.00;99261.31;5021774;28;20221;-77
2023/06/15 06:24:15;;;;;;;6.83;3.67;;;;;;;19.42;100.00;99262.16;5022734;28;20198;-77
2023/06/15 06:26:48;;;;;;;5.03;3.80;;;;;;;19.65;100.00;99269.81;5026581;28;20217;-76
2023/06/15 06:29:18;;;;;;;5.10;3.30;;;;;;;19.78;100.00;99264.88;5021821;28;20202;-77
2023/06/15 06:31:46;;;;;;;4.97;3.60;;;;;;;19.85;100.00;99257.06;4953030;28;20654;-77
2023/06/15 06:34:14;;;;;;;5.03;3.37;;;;;;;19.83;100.00;99253.69;5004204;28;20281;-77
2023/06/15 06:36:43;;;;;;;5.67;3.40;;;;;;;19.98;100.00;99261.06;5027189;28;20218;-77
2023/06/15 06:39:12;;;;;;;3.70;3.00;;;;;;;19.92;100.00;99264.34;5023465;28;20213;-77
2023/06/15 06:41:40;;;;;;;6.27;3.37;;;;;;;19.89;100.00;99263.84;5034066;28;20216;-77
2023/06/15 06:44:10;;;;;;;6.10;3.97;;;;;;;19.87;100.00;99266.66;5034053;28;20190;-77
2023/06/15 06:46:41;;;;;;;5.77;3.70;;;;;;;20.01;100.00;99255.34;4986206;28;20229;-78
2023/06/15 06:49:09;;;;;;;6.37;3.67;;;;;;;20.02;100.00;99258.88;5000990;28;20647;-77
2023/06/15 06:51:37;;;;;;;5.22;3.50;;;;;;;20.20;100.00;99259.69;5070349;28;20275;-77
2023/06/15 06:54:06;;;;;;;7.70;3.90;;;;;;;20.29;100.00;99257.91;5062193;28;20222;-77
2023/06/15 06:56:34;;;;;;;4.27;3.33;;;;;;;20.56;100.00;99263.19;5067575;28;20207;-77
2023/06/15 06:59:03;;;;;;;5.50;3.63;;;;;;;20.64;100.00;99265.03;5067877;28;20200;-77
2023/06/15 07:01:31;;;;;;;6.10;3.47;;;;;;;20.66;100.00;99260.38;5066447;28;20226;-77
2023/06/15 07:04:01;;;;;;;6.73;3.87;;;;;;;20.82;100.00;99260.44;5063861;28;20196;-77
2023/06/15 07:06:30;;;;;;;4.87;3.20;;;;;;;21.12;95.20;99258.19;5065259;28;20220;-78
2023/06/15 07:08:58;;;;;;;5.15;3.58;;;;;;;21.30;93.56;99258.13;5065443;28;20208;-77
2023/06/15 07:11:27;;;;;;;9.43;3.75;;;;;;;21.48;93.52;99255.31;5059243;28;20211;-77
2023/06/15 07:13:55;;;;;;;5.93;3.63;;;;;;;21.22;92.48;99258.06;5065969;28;20632;-77
2023/06/15 07:16:25;;;;;;;4.35;3.20;;;;;;;21.47;92.20;99257.16;5066103;28;20192;-77
2023/06/15 07:18:55;;;;;;;5.63;3.30;;;;;;;21.62;90.25;99258.22;5105576;28;20641;-78
2023/06/15 07:21:25;;;;;;;6.75;3.83;;;;;;;21.62;87.35;99262.75;5113118;28;20585;-77
2023/06/15 07:23:53;;;;;;;7.43;3.80;;;;;;;21.64;85.95;99253.50;5108163;28;20240;-77
2023/06/15 07:26:22;;;;;;;5.18;3.30;;;;;;;21.61;85.40;99258.34;5104115;28;20226;-77
2023/06/15 07:28:50;;;;;;;6.22;3.55;;;;;;;21.66;85.30;99256.84;5096026;28;20257;-78
2023/06/15 07:31:19;;;;;;;6.18;3.70;;;;;;;21.71;82.17;99254.53;5108414;28;20199;-77
2023/06/15 07:33:49;;;;;;;4.93;3.50;;;;;;;21.71;82.10;99259.91;5102632;28;20213;-77
2023/06/15 07:36:19;;;;;;;6.88;3.50;;;;;;;21.89;80.89;99256.19;5050325;28;20228;-77
2023/06/15 07:38:49;;;;;;;5.30;3.47;;;;;;;22.01;79.92;99254.88;5045605;28;20741;-77
2023/06/15 07:41:17;;;;;;;4.13;3.38;;;;;;;21.93;79.59;99253.00;5045234;28;20203;-77
2023/06/15 07:43:46;;;;;;;4.13;3.35;;;;;;;21.89;80.21;99258.88;5044198;28;20275;-77
2023/06/15 07:46:15;;;;;;;4.18;3.53;;;;;;;21.96;78.31;99251.81;5049379;28;20777;-77
2023/06/15 07:48:43;;;;;;;6.47;3.67;;;;;;;22.01;78.23;99254.88;5044770;28;20196;-77
2023/06/15 07:51:11;;;;;;;4.50;3.67;;;;;;;21.94;78.11;99259.25;5044791;28;20687;-77
2023/06/15 07:54:00;;;;;;;4.30;3.35;;;;;;;22.23;75.65;99256.06;5029352;28;20228;-77
2023/06/15 07:56:32;;;;;;;8.88;3.90;;;;;;;22.24;73.55;99265.84;5060200;28;20227;-77
2023/06/15 07:59:01;;;;;;;4.45;3.40;;;;;;;22.23;72.99;99262.28;5064432;28;20197;-77
2023/06/15 08:01:29;;;;;;;7.35;3.40;;;;;;;22.47;72.97;99252.47;5063224;28;20193;-77
2023/06/15 08:03:58;;;;;;;7.30;3.88;;;;;;;22.44;70.65;99255.53;5057640;28;20214;-77
2023/06/15 08:06:26;;;;;;;6.00;3.63;;;;;;;22.72;71.17;99259.50;5066429;28;20212;-77
2023/06/15 08:08:55;;;;;;;8.40;3.45;;;;;;;22.82;70.42;99257.44;5058185;28;20307;-77
2023/06/15 08:11:25;;;;;;;6.93;3.80;;;;;;;22.79;67.49;99251.56;5074677;28;20205;-77
2023/06/15 08:13:53;;;;;;;7.53;3.58;;;;;;;22.93;67.56;99256.25;5109819;28;20281;-78
2023/06/15 08:16:23;;;;;;;3.85;3.50;;;;;;;23.02;68.80;99246.25;5108631;28;20191;-77
2023/06/15 08:18:52;;;;;;;4.80;3.40;;;;;;;23.27;67.53;99247.00;5110682;28;20203;-77
2023/06/15 08:21:20;;;;;;;6.13;3.63;;;;;;;23.36;69.33;99245.94;5109459;28;20232;-77
2023/06/15 08:23:48;;;;;;;6.60;3.60;;;;;;;22.93;71.85;99250.00;5099957;28;20670;-77
2023/06/15 08:26:16;;;;;;;5.80;3.60;;;;;;;23.08;70.75;99253.66;5112069;28;20227;-78
2023/06/15 08:28:46;;;;;;;6.70;3.60;;;;;;;23.18;69.30;99250.75;5110691;28;20211;-77
2023/06/15 08:31:23;;;;;;;5.43;3.83;;;;;;;23.40;63.51;99258.91;5113271;28;20202;-77
2023/06/15 08:33:51;;;;;;;8.63;5.00;;;;;;;23.60;63.10;99253.06;5111754;28;20195;-78
2023/06/15 08:36:19;;;;;;;8.45;3.72;;;;;;;23.78;60.36;99255.47;5108177;28;20246;-78
2023/06/15 08:38:48;;;;;;;5.78;3.65;;;;;;;23.75;60.55;99251.28;5113559;28;20199;-78
2023/06/15 08:41:17;;;;;;;3.78;3.22;;;;;;;23.77;57.18;99253.78;5103530;28;20202;-78
2023/06/15 08:43:47;;;;;;;9.20;3.58;;;;;;;23.62;53.13;99245.59;5106790;28;20223;-78
2023/06/15 08:46:17;;;;;;;5.85;3.72;;;;;;;23.74;48.72;99254.13;5111624;28;20199;-77
2023/06/15 08:48:48;;;;;;;7.40;3.58;;;;;;;23.74;50.44;99246.88;5104469;28;20219;-78
2023/06/15 08:51:18;;;;;;;5.15;3.63;;;;;;;23.89;53.19;99244.22;5106442;28;20195;-78
2023/06/15 08:53:47;;;;;;;7.03;4.82;;;;;;;24.16;53.24;99251.78;5107576;28;20195;-78
2023/06/15 08:56:16;;;;;;;4.88;3.70;;;;;;;24.35;51.35;99249.59;5108658;28;20199;-78
2023/06/15 08:58:49;;;;;;;5.97;3.60;;;;;;;24.25;47.67;99244.41;5106062;28;20198;-78
2023/06/15 09:01:22;;;;;;;5.28;3.45;;;;;;;24.12;44.31;99247.72;5105167;28;20248;-77
2023/06/15 09:03:53;;;;;;;6.07;3.15;;;;;;;24.52;43.91;99246.56;5111253;28;20191;-77
2023/06/15 09:06:23;;;;;;;4.43;3.10;;;;;;;24.47;42.93;99242.69;5111248;28;20195;-77
2023/06/15 09:08:53;;;;;;;5.60;3.35;;;;;;;24.32;43.20;99241.81;5109725;28;20218;-78
2023/06/15 09:11:23;;;;;;;9.70;3.33;;;;;;;24.60;41.63;99245.59;5108551;28;20198;-78
2023/06/15 09:13:55;;;;;;;6.53;3.67;;;;;;;24.73;42.19;99234.13;5114011;28;20187;-78
2023/06/15 09:16:23;;;;;;;7.38;3.10;;;;;;;24.97;41.10;99233.81;5106214;28;20195;-77
2023/06/15 09:18:53;;;;;;;5.13;3.15;;;;;;;25.05;41.43;99236.47;5106627;28;20223;-78
2023/06/15 09:21:22;;;;;;;6.18;3.40;;;;;;;25.19;39.84;99236.63;5028377;28;20197;-78
2023/06/15 09:23:50;;;;;;;5.30;3.33;;;;;;;25.05;41.95;99238.34;5020568;28;20224;-77
2023/06/15 09:26:23;;;;;;;6.07;3.72;;;;;;;24.96;42.08;99240.28;5028465;28;20197;-77
2023/06/15 09:28:55;;;;;;;4.05;3.42;;;;;;;25.25;42.34;99236.69;5027679;28;20271;-77
2023/06/15 09:31:31;;;;;;;5.72;3.47;;;;;;;25.02;42.66;99238.72;5023076;28;20204;-77
2023/06/15 09:34:06;;;;;;;3.95;3.35;;;;;;;25.23;41.93;99227.91;5025373;28;20320;-78
2023/06/15 09:36:38;;;;;;;5.57;3.53;;;;;;;24.81;43.22;99234.03;5046558;28;20753;-78
2023/06/15 09:39:09;;;;;;;6.03;3.53;;;;;;;24.91;44.11;99231.03;5040003;28;20209;-78
2023/06/15 09:41:51;;;;;;;6.38;3.25;;;;;;;25.05;43.88;99222.06;5041960;28;20201;-78
2023/06/15 09:44:22;;;;;;;5.35;3.58;;;;;;;25.36;42.83;99224.50;5044506;28;20197;-78
2023/06/15 09:46:52;;;;;;;5.68;3.35;;;;;;;25.86;40.93;99223.59;5048205;28;20185;-78
2023/06/15 09:49:23;;;;;;;8.55;3.47;;;;;;;25.48;39.24;99220.28;5043867;28;20267;-78
2023/06/15 09:51:51;;;;;;;6.68;3.00;;;;;;;25.39;37.29;99216.84;5053043;28;20248;-78
2023/06/15 09:54:21;;;;;;;5.95;3.25;;;;;;;25.55;37.04;99215.75;5099778;28;20202;-78
2023/06/15 09:56:51;;;;;;;6.40;2.95;;;;;;;25.69;36.10;99206.72;5108597;28;20556;-78
2023/06/15 09:59:22;;;;;;;7.78;3.10;;;;;;;25.88;36.01;99215.28;5113553;28;20195;-78
2023/06/15 10:01:55;;;;;;;8.45;3.40;;;;;;;26.06;36.59;99212.94;5105470;28;20205;-78
2023/06/15 10:04:26;;;;;;;4.70;2.88;;;;;;;26.24;35.35;99215.97;5113335;28;20202;-78
2023/06/15 10:07:00;;;;;;;5.00;2.85;;;;;;;26.66;34.10;99216.94;5110414;28;20199;-77
2023/06/15 10:09:32;;;;;;;4.07;2.92;;;;;;;26.77;33.77;99216.34;5106217;28;20215;-78
2023/06/15 10:12:06;;;;;;;4.95;3.00;;;;;;;27.26;33.78;99209.91;5010557;28;20229;-78
2023/06/15 10:14:45;;;;;;;6.32;3.53;;;;;;;26.76;34.56;99219.28;5010554;28;20193;-78
2023/06/15 10:17:16;;;;;;;5.93;3.47;;;;;;;26.51;34.77;99208.03;5010755;28;20298;-78
2023/06/15 10:19:51;;;;;;;5.63;3.05;;;;;;;27.01;33.62;99211.44;5005609;28;20198;-78
2023/06/15 10:22:21;;;;;;;7.30;3.00;;;;;;;26.88;32.58;99211.38;5004833;28;20277;-78
2023/06/15 10:24:50;;;;;;;3.67;2.83;;;;;;;27.43;31.15;99215.00;5002556;28;20198;-78
2023/06/15 10:27:20;;;;;;;5.28;2.80;;;;;;;27.33;30.63;99212.66;4999991;28;20657;-77
2023/06/15 10:30:07;;;;;;;4.72;3.10;;;;;;;27.75;31.63;99202.50;5040333;28;20215;-78
2023/06/15 10:32:45;;;;;;;4.43;3.30;;;;;;;27.33;33.46;99199.88;5108581;28;20191;-78
2023/06/15 10:35:23;;;;;;;3.15;2.75;;;;;;;27.96;32.96;99205.03;5110441;28;20230;-78
2023/06/15 10:38:02;;;;;;;5.80;3.00;;;;;;;28.49;31.91;99203.13;5101318;28;20209;-78
2023/06/15 10:40:38;;;;;;;4.82;3.28;;;;;;;28.40;30.85;99204.41;5104714;28;20214;-78
2023/06/15 10:43:06;;;;;;;4.28;2.97;;;;;;;28.47;30.32;99198.94;5109205;28;20200;-78
2023/06/15 10:45:38;;;;;;;5.68;2.85;;;;;;;27.71;29.58;99206.69;5104911;28;20233;-78
2023/06/15 10:48:06;;;;;;;4.35;2.78;;;;;;;27.10;29.59;99199.38;5098097;28;20218;-78
2023/06/15 10:50:40;;;;;;;4.32;2.90;;;;;;;27.20;31.18;99197.09;5108437;28;20657;-78
2023/06/15 10:53:25;;;;;;;5.13;3.10;;;;;;;27.21;30.76;99193.34;5106733;28;20199;-78
2023/06/15 10:55:55;;;;;;;3.60;3.13;;;;;;;28.04;29.23;99191.19;5104829;28;20195;-78
2023/06/15 10:58:26;;;;;;;4.95;3.20;;;;;;;28.23;29.37;99205.84;5106085;28;20187;-78
2023/06/15 11:01:09;;;;;;;4.85;3.03;;;;;;;28.00;29.87;99194.56;5109868;28;20189;-78
2023/06/15 11:03:41;;;;;;;6.30;3.00;;;;;;;28.68;28.75;99190.50;5108277;28;20191;-77
2023/06/15 11:06:15;;;;;;;3.10;2.63;;;;;;;28.63;28.46;99192.19;5106180;28;20197;-78
2023/06/15 11:08:49;;;;;;;3.47;2.80;;;;;;;29.25;27.18;99186.13;5101377;28;20229;-78
2023/06/15 11:11:20;;;;;;;3.22;2.70;;;;;;;29.00;27.29;99188.75;5109468;28;20199;-79
2023/06/15 11:14:11;;;;;;;7.35;3.13;;;;;;;29.42;27.68;99182.84;5106406;28;20219;-78
2023/06/15 11:16:44;;;;;;;6.45;2.95;;;;;;;29.29;27.74;99183.78;5107806;28;20258;-78
2023/06/15 11:19:29;;;;;;;3.83;2.97;;;;;;;29.50;27.41;99188.09;5108151;28;20668;-78
2023/06/15 11:22:01;;;;;;;5.22;3.15;;;;;;;29.47;26.93;99172.13;5104011;28;20195;-78
2023/06/15 11:24:36;;;;;;;8.18;3.00;;;;;;;28.76;27.92;99181.25;5106449;28;20201;-78
2023/06/15 11:27:08;;;;;;;6.13;3.00;;;;;;;27.93;29.79;99170.06;5048981;28;20204;-78
2023/06/15 11:29:38;;;;;;;5.47;3.22;;;;;;;27.90;30.85;99179.47;4985475;28;20231;-78
2023/06/15 11:32:09;;;;;;;3.33;3.00;;;;;;;27.11;31.43;99195.59;4991244;28;20195;-77
2023/06/15 11:34:41;;;;;;;6.72;2.97;;;;;;;27.57;30.95;99184.84;4993636;28;20238;-77
2023/06/15 11:37:12;;;;;;;5.25;2.78;;;;;;;28.23;30.41;99187.63;4986077;28;20203;-78
2023/06/15 11:39:44;;;;;;;5.13;3.30;;;;;;;27.89;30.08;99176.94;4986800;28;20281;-78
2023/06/15 11:42:13;;;;;;;6.18;3.58;;;;;;;28.39;29.57;99180.09;4987661;28;20260;-78
2023/06/15 11:44:41;;;;;;;6.85;3.30;;;;;;;28.92;30.07;99175.34;5001563;28;20208;-77